New Woodstock, New York
Current Conditions -  °F | °C
As of 8:54 AM on Friday 19 Dec 2014 (Local Time) from KSYR Reporting Station
Light Snow Light Snow  
Wind Chill: 14°   Ceiling: 1700
Heat Index: 24°   Visibility: 7mi
Dew Point: 21°   Wind: 9mph
Humidity: 88%   Direction: 300°WNW
Pressure: 30.13"   Gusts: NA
Location:  42.85°N, 75.85°W
Report Text: KSYR 191354Z 30008KT 7SM -SN OVC017 M04/M06 A3013 RMK AO2 SLP204 P0000 T10441061
Loading
Personal Weather Stations






























Interactive Weather Map New forecast layout! Learn more

10-Day Weather Forecast

Advertisements
Track Severe Weather on mobile